sensor_id;sensor_type;location;lat;lon;timestamp;P1;durP1;ratioP1;P2;durP2;ratioP2
36585;SDS011;22591;48.314;11.562;2022-10-16T00:01:13;4.35;;;3.95;;
36585;SDS011;22591;48.314;11.562;2022-10-16T00:03:40;5.18;;;4.78;;
36585;SDS011;22591;48.314;11.562;2022-10-16T00:06:07;5.07;;;4.55;;
36585;SDS011;22591;48.314;11.562;2022-10-16T00:08:34;12.52;;;6.45;;
36585;SDS011;22591;48.314;11.562;2022-10-16T00:11:01;6.35;;;5.75;;
36585;SDS011;22591;48.314;11.562;2022-10-16T00:13:29;6.50;;;5.30;;
36585;SDS011;22591;48.314;11.562;2022-10-16T00:15:56;6.63;;;5.20;;
36585;SDS011;22591;48.314;11.562;2022-10-16T00:18:22;6.15;;;5.63;;
36585;SDS011;22591;48.314;11.562;2022-10-16T00:20:48;5.78;;;5.35;;
36585;SDS011;22591;48.314;11.562;2022-10-16T00:23:14;7.70;;;4.70;;
36585;SDS011;22591;48.314;11.562;2022-10-16T00:25:39;8.13;;;4.75;;
36585;SDS011;22591;48.314;11.562;2022-10-16T00:28:05;5.00;;;4.53;;
36585;SDS011;22591;48.314;11.562;2022-10-16T00:30:30;5.13;;;4.60;;
36585;SDS011;22591;48.314;11.562;2022-10-16T00:32:56;10.95;;;4.28;;
36585;SDS011;22591;48.314;11.562;2022-10-16T00:35:21;4.57;;;4.22;;
36585;SDS011;22591;48.314;11.562;2022-10-16T00:37:47;5.07;;;4.20;;
36585;SDS011;22591;48.314;11.562;2022-10-16T00:40:13;5.78;;;4.38;;
36585;SDS011;22591;48.314;11.562;2022-10-16T00:42:38;4.70;;;4.32;;
36585;SDS011;22591;48.314;11.562;2022-10-16T00:45:05;4.70;;;4.30;;
36585;SDS011;22591;48.314;11.562;2022-10-16T00:47:35;4.82;;;4.25;;
36585;SDS011;22591;48.314;11.562;2022-10-16T00:52:32;4.13;;;3.83;;
36585;SDS011;22591;48.314;11.562;2022-10-16T00:54:58;4.55;;;4.20;;
36585;SDS011;22591;48.314;11.562;2022-10-16T00:57:26;3.65;;;3.45;;
36585;SDS011;22591;48.314;11.562;2022-10-16T00:59:53;5.45;;;4.53;;
36585;SDS011;22591;48.314;11.562;2022-10-16T01:02:19;4.90;;;4.35;;
36585;SDS011;22591;48.314;11.562;2022-10-16T01:04:49;4.20;;;3.90;;
36585;SDS011;22591;48.314;11.562;2022-10-16T01:10:30;5.78;;;4.35;;
36585;SDS011;22591;48.314;11.562;2022-10-16T01:13:13;5.90;;;5.07;;
36585;SDS011;22591;48.314;11.562;2022-10-16T01:15:55;4.93;;;4.43;;
36585;SDS011;22591;48.314;11.562;2022-10-16T01:18:37;5.93;;;5.18;;
36585;SDS011;22591;48.314;11.562;2022-10-16T01:21:08;5.57;;;4.97;;
36585;SDS011;22591;48.314;11.562;2022-10-16T01:23:56;4.70;;;4.35;;
36585;SDS011;22591;48.314;11.562;2022-10-16T01:29:21;5.38;;;4.70;;
36585;SDS011;22591;48.314;11.562;2022-10-16T01:31:58;4.90;;;4.50;;
36585;SDS011;22591;48.314;11.562;2022-10-16T01:34:33;5.07;;;4.50;;
36585;SDS011;22591;48.314;11.562;2022-10-16T01:37:07;5.35;;;4.50;;
36585;SDS011;22591;48.314;11.562;2022-10-16T01:39:38;3.60;;;3.40;;
36585;SDS011;22591;48.314;11.562;2022-10-16T01:42:16;7.00;;;4.43;;
36585;SDS011;22591;48.314;11.562;2022-10-16T01:44:47;3.47;;;2.67;;
36585;SDS011;22591;48.314;11.562;2022-10-16T01:47:14;4.57;;;3.70;;
36585;SDS011;22591;48.314;11.562;2022-10-16T01:49:42;3.47;;;3.20;;
36585;SDS011;22591;48.314;11.562;2022-10-16T01:52:10;6.85;;;2.92;;
36585;SDS011;22591;48.314;11.562;2022-10-16T01:54:43;3.65;;;3.00;;
36585;SDS011;22591;48.314;11.562;2022-10-16T01:57:11;3.00;;;2.55;;
36585;SDS011;22591;48.314;11.562;2022-10-16T01:59:40;3.60;;;2.95;;
36585;SDS011;22591;48.314;11.562;2022-10-16T02:02:10;3.28;;;2.65;;
36585;SDS011;22591;48.314;11.562;2022-10-16T02:04:40;3.40;;;2.30;;
36585;SDS011;22591;48.314;11.562;2022-10-16T02:07:10;4.78;;;3.13;;
36585;SDS011;22591;48.314;11.562;2022-10-16T02:09:36;3.58;;;3.28;;
36585;SDS011;22591;48.314;11.562;2022-10-16T02:12:06;6.20;;;2.70;;
36585;SDS011;22591;48.314;11.562;2022-10-16T02:14:37;3.00;;;2.80;;
36585;SDS011;22591;48.314;11.562;2022-10-16T02:17:14;3.67;;;3.33;;
36585;SDS011;22591;48.314;11.562;2022-10-16T02:19:41;3.40;;;3.10;;
36585;SDS011;22591;48.314;11.562;2022-10-16T02:22:09;5.03;;;3.42;;
36585;SDS011;22591;48.314;11.562;2022-10-16T02:27:20;2.75;;;2.55;;
36585;SDS011;22591;48.314;11.562;2022-10-16T02:29:53;4.10;;;3.70;;
36585;SDS011;22591;48.314;11.562;2022-10-16T02:32:26;3.80;;;3.35;;
36585;SDS011;22591;48.314;11.562;2022-10-16T02:34:55;3.15;;;2.95;;
36585;SDS011;22591;48.314;11.562;2022-10-16T02:37:22;2.88;;;2.63;;
36585;SDS011;22591;48.314;11.562;2022-10-16T02:39:49;2.80;;;2.70;;
36585;SDS011;22591;48.314;11.562;2022-10-16T02:42:15;3.22;;;3.03;;
36585;SDS011;22591;48.314;11.562;2022-10-16T02:44:42;5.28;;;2.92;;
36585;SDS011;22591;48.314;11.562;2022-10-16T02:47:08;3.08;;;2.88;;
36585;SDS011;22591;48.314;11.562;2022-10-16T02:49:33;3.70;;;3.50;;
36585;SDS011;22591;48.314;11.562;2022-10-16T02:51:59;3.97;;;3.25;;
36585;SDS011;22591;48.314;11.562;2022-10-16T02:54:24;3.88;;;3.58;;
36585;SDS011;22591;48.314;11.562;2022-10-16T02:56:50;4.10;;;3.88;;
36585;SDS011;22591;48.314;11.562;2022-10-16T02:59:16;5.07;;;4.57;;
36585;SDS011;22591;48.314;11.562;2022-10-16T03:01:41;7.78;;;5.35;;
36585;SDS011;22591;48.314;11.562;2022-10-16T03:04:07;6.05;;;5.35;;
36585;SDS011;22591;48.314;11.562;2022-10-16T03:06:33;8.07;;;6.10;;
36585;SDS011;22591;48.314;11.562;2022-10-16T03:08:59;8.27;;;7.30;;
36585;SDS011;22591;48.314;11.562;2022-10-16T03:11:25;8.82;;;7.18;;
36585;SDS011;22591;48.314;11.562;2022-10-16T03:13:51;7.63;;;7.03;;
36585;SDS011;22591;48.314;11.562;2022-10-16T03:16:16;7.40;;;6.72;;
36585;SDS011;22591;48.314;11.562;2022-10-16T03:18:42;10.00;;;8.23;;
36585;SDS011;22591;48.314;11.562;2022-10-16T03:21:08;8.25;;;7.43;;
36585;SDS011;22591;48.314;11.562;2022-10-16T03:23:33;6.18;;;5.75;;
36585;SDS011;22591;48.314;11.562;2022-10-16T03:25:59;8.23;;;7.35;;
36585;SDS011;22591;48.314;11.562;2022-10-16T03:28:24;5.47;;;5.07;;
36585;SDS011;22591;48.314;11.562;2022-10-16T03:30:50;4.10;;;3.90;;
36585;SDS011;22591;48.314;11.562;2022-10-16T03:33:15;4.47;;;4.18;;
36585;SDS011;22591;48.314;11.562;2022-10-16T03:35:41;4.55;;;4.15;;
36585;SDS011;22591;48.314;11.562;2022-10-16T03:38:07;3.63;;;3.42;;
36585;SDS011;22591;48.314;11.562;2022-10-16T03:40:32;4.68;;;3.78;;
36585;SDS011;22591;48.314;11.562;2022-10-16T03:42:58;5.78;;;4.13;;
36585;SDS011;22591;48.314;11.562;2022-10-16T03:45:24;5.25;;;4.82;;
36585;SDS011;22591;48.314;11.562;2022-10-16T03:47:50;3.70;;;3.40;;
36585;SDS011;22591;48.314;11.562;2022-10-16T03:50:15;4.95;;;4.50;;
36585;SDS011;22591;48.314;11.562;2022-10-16T03:52:41;5.28;;;4.88;;
36585;SDS011;22591;48.314;11.562;2022-10-16T03:55:06;3.78;;;3.47;;
36585;SDS011;22591;48.314;11.562;2022-10-16T03:57:32;3.30;;;3.10;;
36585;SDS011;22591;48.314;11.562;2022-10-16T04:00:00;6.38;;;5.05;;
36585;SDS011;22591;48.314;11.562;2022-10-16T04:02:28;3.97;;;3.78;;
36585;SDS011;22591;48.314;11.562;2022-10-16T04:04:55;5.22;;;3.80;;
36585;SDS011;22591;48.314;11.562;2022-10-16T04:07:22;4.40;;;4.00;;
36585;SDS011;22591;48.314;11.562;2022-10-16T04:09:48;9.75;;;4.05;;
36585;SDS011;22591;48.314;11.562;2022-10-16T04:12:18;3.33;;;3.15;;
36585;SDS011;22591;48.314;11.562;2022-10-16T04:14:46;3.53;;;3.20;;
36585;SDS011;22591;48.314;11.562;2022-10-16T04:17:13;3.33;;;3.08;;
36585;SDS011;22591;48.314;11.562;2022-10-16T04:19:41;2.97;;;2.78;;
36585;SDS011;22591;48.314;11.562;2022-10-16T04:22:09;2.85;;;2.65;;
36585;SDS011;22591;48.314;11.562;2022-10-16T04:24:35;2.33;;;2.22;;
36585;SDS011;22591;48.314;11.562;2022-10-16T04:27:02;3.38;;;3.17;;
36585;SDS011;22591;48.314;11.562;2022-10-16T04:29:28;4.97;;;3.40;;
36585;SDS011;22591;48.314;11.562;2022-10-16T04:31:54;2.85;;;2.65;;
36585;SDS011;22591;48.314;11.562;2022-10-16T04:34:21;8.15;;;4.10;;
36585;SDS011;22591;48.314;11.562;2022-10-16T04:36:49;4.15;;;2.80;;
36585;SDS011;22591;48.314;11.562;2022-10-16T04:39:16;3.55;;;3.20;;
36585;SDS011;22591;48.314;11.562;2022-10-16T04:41:43;3.53;;;3.22;;
36585;SDS011;22591;48.314;11.562;2022-10-16T04:44:10;5.18;;;3.72;;
36585;SDS011;22591;48.314;11.562;2022-10-16T04:46:37;2.72;;;2.53;;
36585;SDS011;22591;48.314;11.562;2022-10-16T04:49:04;3.67;;;3.45;;
36585;SDS011;22591;48.314;11.562;2022-10-16T04:51:29;4.35;;;3.30;;
36585;SDS011;22591;48.314;11.562;2022-10-16T04:53:56;8.18;;;3.90;;
36585;SDS011;22591;48.314;11.562;2022-10-16T04:56:24;3.30;;;3.00;;
36585;SDS011;22591;48.314;11.562;2022-10-16T04:58:50;3.17;;;2.88;;
36585;SDS011;22591;48.314;11.562;2022-10-16T05:01:16;5.03;;;3.58;;
36585;SDS011;22591;48.314;11.562;2022-10-16T05:03:45;3.25;;;2.78;;
36585;SDS011;22591;48.314;11.562;2022-10-16T05:06:12;3.60;;;2.67;;
36585;SDS011;22591;48.314;11.562;2022-10-16T05:08:39;3.72;;;2.80;;
36585;SDS011;22591;48.314;11.562;2022-10-16T05:11:05;3.17;;;2.92;;
36585;SDS011;22591;48.314;11.562;2022-10-16T05:13:31;3.75;;;3.45;;
36585;SDS011;22591;48.314;11.562;2022-10-16T05:15:58;4.05;;;3.17;;
36585;SDS011;22591;48.314;11.562;2022-10-16T05:18:25;2.95;;;2.75;;
36585;SDS011;22591;48.314;11.562;2022-10-16T05:20:53;2.88;;;2.65;;
36585;SDS011;22591;48.314;11.562;2022-10-16T05:23:20;2.92;;;2.72;;
36585;SDS011;22591;48.314;11.562;2022-10-16T05:25:53;3.15;;;2.95;;
36585;SDS011;22591;48.314;11.562;2022-10-16T05:28:40;7.55;;;3.45;;
36585;SDS011;22591;48.314;11.562;2022-10-16T05:31:08;4.90;;;3.65;;
36585;SDS011;22591;48.314;11.562;2022-10-16T05:33:36;5.07;;;3.92;;
36585;SDS011;22591;48.314;11.562;2022-10-16T05:36:04;6.18;;;4.07;;
36585;SDS011;22591;48.314;11.562;2022-10-16T05:38:50;3.90;;;3.47;;
36585;SDS011;22591;48.314;11.562;2022-10-16T05:41:17;3.97;;;3.58;;
36585;SDS011;22591;48.314;11.562;2022-10-16T05:43:48;12.55;;;4.35;;
36585;SDS011;22591;48.314;11.562;2022-10-16T05:46:15;3.33;;;3.20;;
36585;SDS011;22591;48.314;11.562;2022-10-16T05:48:43;3.88;;;3.53;;
36585;SDS011;22591;48.314;11.562;2022-10-16T05:51:12;3.65;;;3.17;;
36585;SDS011;22591;48.314;11.562;2022-10-16T05:53:41;3.30;;;3.10;;
36585;SDS011;22591;48.314;11.562;2022-10-16T05:56:10;3.15;;;2.95;;
36585;SDS011;22591;48.314;11.562;2022-10-16T05:58:39;3.38;;;3.17;;
36585;SDS011;22591;48.314;11.562;2022-10-16T06:01:09;3.95;;;3.20;;
36585;SDS011;22591;48.314;11.562;2022-10-16T06:03:38;4.05;;;2.92;;
36585;SDS011;22591;48.314;11.562;2022-10-16T06:06:08;6.15;;;3.58;;
36585;SDS011;22591;48.314;11.562;2022-10-16T06:08:40;5.97;;;3.15;;
36585;SDS011;22591;48.314;11.562;2022-10-16T06:13:50;7.18;;;3.33;;
36585;SDS011;22591;48.314;11.562;2022-10-16T06:16:18;2.67;;;2.58;;
36585;SDS011;22591;48.314;11.562;2022-10-16T06:18:45;5.95;;;2.78;;
36585;SDS011;22591;48.314;11.562;2022-10-16T06:21:16;2.92;;;2.60;;
36585;SDS011;22591;48.314;11.562;2022-10-16T06:26:16;3.47;;;3.17;;
36585;SDS011;22591;48.314;11.562;2022-10-16T06:28:45;2.47;;;2.38;;
36585;SDS011;22591;48.314;11.562;2022-10-16T06:31:13;2.80;;;2.60;;
36585;SDS011;22591;48.314;11.562;2022-10-16T06:33:41;4.90;;;2.90;;
36585;SDS011;22591;48.314;11.562;2022-10-16T06:36:12;2.40;;;2.25;;
36585;SDS011;22591;48.314;11.562;2022-10-16T06:41:08;4.10;;;2.60;;
36585;SDS011;22591;48.314;11.562;2022-10-16T06:43:40;5.68;;;2.78;;
36585;SDS011;22591;48.314;11.562;2022-10-16T06:46:11;3.78;;;2.22;;
36585;SDS011;22591;48.314;11.562;2022-10-16T06:48:40;2.42;;;2.33;;
36585;SDS011;22591;48.314;11.562;2022-10-16T06:51:08;3.75;;;2.05;;
36585;SDS011;22591;48.314;11.562;2022-10-16T06:53:40;4.47;;;2.17;;
36585;SDS011;22591;48.314;11.562;2022-10-16T06:56:14;2.38;;;2.25;;
36585;SDS011;22591;48.314;11.562;2022-10-16T06:58:42;3.10;;;2.63;;
36585;SDS011;22591;48.314;11.562;2022-10-16T07:01:10;2.50;;;2.30;;
36585;SDS011;22591;48.314;11.562;2022-10-16T07:03:38;4.20;;;3.80;;
36585;SDS011;22591;48.314;11.562;2022-10-16T07:06:06;3.05;;;2.42;;
36585;SDS011;22591;48.314;11.562;2022-10-16T07:08:33;2.63;;;2.40;;
36585;SDS011;22591;48.314;11.562;2022-10-16T07:11:01;3.85;;;3.13;;
36585;SDS011;22591;48.314;11.562;2022-10-16T07:13:29;3.10;;;2.95;;
36585;SDS011;22591;48.314;11.562;2022-10-16T07:15:56;3.28;;;3.08;;
36585;SDS011;22591;48.314;11.562;2022-10-16T07:18:24;3.40;;;3.20;;
36585;SDS011;22591;48.314;11.562;2022-10-16T07:20:53;2.97;;;2.78;;
36585;SDS011;22591;48.314;11.562;2022-10-16T07:23:19;4.30;;;2.55;;
36585;SDS011;22591;48.314;11.562;2022-10-16T07:25:52;4.43;;;2.45;;
36585;SDS011;22591;48.314;11.562;2022-10-16T07:28:20;3.03;;;2.28;;
36585;SDS011;22591;48.314;11.562;2022-10-16T07:30:47;2.83;;;2.28;;
36585;SDS011;22591;48.314;11.562;2022-10-16T07:33:14;4.00;;;1.88;;
36585;SDS011;22591;48.314;11.562;2022-10-16T07:35:52;3.90;;;2.05;;
36585;SDS011;22591;48.314;11.562;2022-10-16T07:38:21;3.63;;;2.15;;
36585;SDS011;22591;48.314;11.562;2022-10-16T07:40:55;4.10;;;2.25;;
36585;SDS011;22591;48.314;11.562;2022-10-16T07:43:32;3.10;;;2.90;;
36585;SDS011;22591;48.314;11.562;2022-10-16T07:46:00;2.70;;;2.50;;
36585;SDS011;22591;48.314;11.562;2022-10-16T07:48:29;3.75;;;2.30;;
36585;SDS011;22591;48.314;11.562;2022-10-16T07:50:58;5.32;;;2.75;;
36585;SDS011;22591;48.314;11.562;2022-10-16T07:53:44;2.28;;;1.92;;
36585;SDS011;22591;48.314;11.562;2022-10-16T07:56:12;3.08;;;2.88;;
36585;SDS011;22591;48.314;11.562;2022-10-16T07:58:40;3.28;;;2.83;;
36585;SDS011;22591;48.314;11.562;2022-10-16T08:01:10;2.67;;;2.42;;
36585;SDS011;22591;48.314;11.562;2022-10-16T08:03:42;2.13;;;2.00;;
36585;SDS011;22591;48.314;11.562;2022-10-16T08:06:10;2.83;;;2.63;;
36585;SDS011;22591;48.314;11.562;2022-10-16T08:08:37;6.05;;;2.83;;
36585;SDS011;22591;48.314;11.562;2022-10-16T08:11:04;2.50;;;2.30;;
36585;SDS011;22591;48.314;11.562;2022-10-16T08:13:30;2.30;;;2.05;;
36585;SDS011;22591;48.314;11.562;2022-10-16T08:15:56;4.03;;;2.25;;
36585;SDS011;22591;48.314;11.562;2022-10-16T08:18:23;4.00;;;2.00;;
36585;SDS011;22591;48.314;11.562;2022-10-16T08:20:59;4.45;;;2.10;;
36585;SDS011;22591;48.314;11.562;2022-10-16T08:23:26;3.88;;;2.10;;
36585;SDS011;22591;48.314;11.562;2022-10-16T08:25:54;2.20;;;2.00;;
36585;SDS011;22591;48.314;11.562;2022-10-16T08:28:23;3.63;;;2.40;;
36585;SDS011;22591;48.314;11.562;2022-10-16T08:30:48;3.47;;;2.33;;
36585;SDS011;22591;48.314;11.562;2022-10-16T08:33:15;2.08;;;1.98;;
36585;SDS011;22591;48.314;11.562;2022-10-16T08:35:43;5.78;;;2.28;;
36585;SDS011;22591;48.314;11.562;2022-10-16T08:38:18;4.82;;;1.95;;
36585;SDS011;22591;48.314;11.562;2022-10-16T08:40:45;2.95;;;2.60;;
36585;SDS011;22591;48.314;11.562;2022-10-16T08:49:20;3.50;;;2.47;;
36585;SDS011;22591;48.314;11.562;2022-10-16T08:51:50;2.70;;;2.50;;
36585;SDS011;22591;48.314;11.562;2022-10-16T08:54:28;3.08;;;2.58;;
36585;SDS011;22591;48.314;11.562;2022-10-16T08:57:00;2.60;;;2.40;;
36585;SDS011;22591;48.314;11.562;2022-10-16T09:00:00;2.53;;;2.33;;
36585;SDS011;22591;48.314;11.562;2022-10-16T09:03:22;2.28;;;2.17;;
36585;SDS011;22591;48.314;11.562;2022-10-16T09:09:10;3.38;;;2.25;;
36585;SDS011;22591;48.314;11.562;2022-10-16T09:15:34;2.33;;;2.10;;
36585;SDS011;22591;48.314;11.562;2022-10-16T09:18:24;2.20;;;2.10;;
36585;SDS011;22591;48.314;11.562;2022-10-16T09:21:14;2.03;;;1.92;;
36585;SDS011;22591;48.314;11.562;2022-10-16T09:23:47;3.63;;;1.90;;
36585;SDS011;22591;48.314;11.562;2022-10-16T09:26:16;4.07;;;2.20;;
36585;SDS011;22591;48.314;11.562;2022-10-16T09:28:48;1.92;;;1.83;;
36585;SDS011;22591;48.314;11.562;2022-10-16T09:31:20;1.90;;;1.80;;
36585;SDS011;22591;48.314;11.562;2022-10-16T09:33:55;2.35;;;2.13;;
36585;SDS011;22591;48.314;11.562;2022-10-16T09:36:26;3.72;;;2.00;;
36585;SDS011;22591;48.314;11.562;2022-10-16T09:39:07;2.38;;;1.95;;
36585;SDS011;22591;48.314;11.562;2022-10-16T09:41:41;3.90;;;2.20;;
36585;SDS011;22591;48.314;11.562;2022-10-16T09:44:27;2.45;;;2.35;;
36585;SDS011;22591;48.314;11.562;2022-10-16T09:47:03;3.17;;;2.03;;
36585;SDS011;22591;48.314;11.562;2022-10-16T09:49:31;2.22;;;2.00;;
36585;SDS011;22591;48.314;11.562;2022-10-16T09:52:05;2.22;;;2.10;;
36585;SDS011;22591;48.314;11.562;2022-10-16T09:54:38;4.50;;;2.10;;
36585;SDS011;22591;48.314;11.562;2022-10-16T09:57:54;2.15;;;2.05;;
36585;SDS011;22591;48.314;11.562;2022-10-16T10:00:22;2.15;;;2.05;;
36585;SDS011;22591;48.314;11.562;2022-10-16T10:02:50;2.30;;;2.20;;
36585;SDS011;22591;48.314;11.562;2022-10-16T10:05:31;3.08;;;2.40;;
36585;SDS011;22591;48.314;11.562;2022-10-16T10:07:59;5.10;;;3.25;;
36585;SDS011;22591;48.314;11.562;2022-10-16T10:10:32;2.38;;;2.17;;
36585;SDS011;22591;48.314;11.562;2022-10-16T10:13:20;2.53;;;2.40;;
36585;SDS011;22591;48.314;11.562;2022-10-16T10:15:48;1.80;;;1.70;;
36585;SDS011;22591;48.314;11.562;2022-10-16T10:18:20;2.30;;;1.98;;
36585;SDS011;22591;48.314;11.562;2022-10-16T10:21:01;2.03;;;1.83;;
36585;SDS011;22591;48.314;11.562;2022-10-16T10:23:32;2.20;;;2.10;;
36585;SDS011;22591;48.314;11.562;2022-10-16T10:26:05;2.97;;;2.15;;
36585;SDS011;22591;48.314;11.562;2022-10-16T10:34:50;1.90;;;1.80;;
36585;SDS011;22591;48.314;11.562;2022-10-16T10:37:53;2.45;;;1.90;;
36585;SDS011;22591;48.314;11.562;2022-10-16T10:41:10;3.30;;;1.80;;
36585;SDS011;22591;48.314;11.562;2022-10-16T10:47:23;5.03;;;2.13;;
36585;SDS011;22591;48.314;11.562;2022-10-16T10:53:24;2.65;;;1.77;;
36585;SDS011;22591;48.314;11.562;2022-10-16T11:02:32;6.60;;;1.48;;
36585;SDS011;22591;48.314;11.562;2022-10-16T11:08:01;1.65;;;1.55;;
36585;SDS011;22591;48.314;11.562;2022-10-16T11:10:40;1.10;;;1.00;;
36585;SDS011;22591;48.314;11.562;2022-10-16T11:13:38;1.23;;;1.23;;
36585;SDS011;22591;48.314;11.562;2022-10-16T11:16:22;3.65;;;1.40;;
36585;SDS011;22591;48.314;11.562;2022-10-16T11:21:49;1.35;;;1.35;;
36585;SDS011;22591;48.314;11.562;2022-10-16T11:27:00;1.00;;;1.00;;
36585;SDS011;22591;48.314;11.562;2022-10-16T11:29:33;1.13;;;0.82;;
36585;SDS011;22591;48.314;11.562;2022-10-16T11:32:07;2.80;;;1.00;;
36585;SDS011;22591;48.314;11.562;2022-10-16T11:34:47;1.50;;;0.95;;
36585;SDS011;22591;48.314;11.562;2022-10-16T11:37:30;0.80;;;0.80;;
36585;SDS011;22591;48.314;11.562;2022-10-16T11:40:45;0.80;;;0.80;;
36585;SDS011;22591;48.314;11.562;2022-10-16T11:43:19;1.75;;;0.88;;
36585;SDS011;22591;48.314;11.562;2022-10-16T11:46:04;1.20;;;0.75;;
36585;SDS011;22591;48.314;11.562;2022-10-16T11:48:51;2.28;;;0.80;;
36585;SDS011;22591;48.314;11.562;2022-10-16T11:51:40;2.20;;;0.93;;
36585;SDS011;22591;48.314;11.562;2022-10-16T11:54:21;0.88;;;0.88;;
36585;SDS011;22591;48.314;11.562;2022-10-16T11:57:41;0.82;;;0.80;;
36585;SDS011;22591;48.314;11.562;2022-10-16T12:00:14;0.80;;;0.80;;
36585;SDS011;22591;48.314;11.562;2022-10-16T12:09:01;0.90;;;0.90;;
36585;SDS011;22591;48.314;11.562;2022-10-16T12:11:52;8.20;;;1.00;;
36585;SDS011;22591;48.314;11.562;2022-10-16T12:17:03;0.47;;;0.47;;
36585;SDS011;22591;48.314;11.562;2022-10-16T12:20:53;0.60;;;0.52;;
36585;SDS011;22591;48.314;11.562;2022-10-16T12:23:03;0.85;;;0.85;;
36585;SDS011;22591;48.314;11.562;2022-10-16T12:25:34;0.75;;;0.60;;
36585;SDS011;22591;48.314;11.562;2022-10-16T12:28:37;1.00;;;1.00;;
36585;SDS011;22591;48.314;11.562;2022-10-16T12:31:07;0.77;;;0.77;;
36585;SDS011;22591;48.314;11.562;2022-10-16T12:34:02;0.77;;;0.77;;
36585;SDS011;22591;48.314;11.562;2022-10-16T12:37:07;0.90;;;0.90;;
36585;SDS011;22591;48.314;11.562;2022-10-16T12:39:56;0.65;;;0.65;;
36585;SDS011;22591;48.314;11.562;2022-10-16T12:42:38;1.35;;;0.70;;
36585;SDS011;22591;48.314;11.562;2022-10-16T12:47:55;0.80;;;0.80;;
36585;SDS011;22591;48.314;11.562;2022-10-16T12:50:28;2.35;;;0.90;;
36585;SDS011;22591;48.314;11.562;2022-10-16T12:53:02;2.00;;;1.00;;
36585;SDS011;22591;48.314;11.562;2022-10-16T12:55:57;1.25;;;1.00;;
36585;SDS011;22591;48.314;11.562;2022-10-16T13:25:46;1.08;;;0.70;;
36585;SDS011;22591;48.314;11.562;2022-10-16T13:28:31;0.82;;;0.82;;
36585;SDS011;22591;48.314;11.562;2022-10-16T13:31:17;1.50;;;0.85;;
36585;SDS011;22591;48.314;11.562;2022-10-16T13:33:55;0.80;;;0.80;;
36585;SDS011;22591;48.314;11.562;2022-10-16T13:39:29;3.60;;;1.00;;
36585;SDS011;22591;48.314;11.562;2022-10-16T13:42:05;0.70;;;0.70;;
36585;SDS011;22591;48.314;11.562;2022-10-16T13:44:48;0.70;;;0.70;;
36585;SDS011;22591;48.314;11.562;2022-10-16T13:47:28;1.67;;;0.65;;
36585;SDS011;22591;48.314;11.562;2022-10-16T13:52:41;0.80;;;0.80;;
36585;SDS011;22591;48.314;11.562;2022-10-16T13:55:14;5.15;;;0.98;;
36585;SDS011;22591;48.314;11.562;2022-10-16T13:57:42;1.00;;;0.98;;
36585;SDS011;22591;48.314;11.562;2022-10-16T14:00:19;2.20;;;1.00;;
36585;SDS011;22591;48.314;11.562;2022-10-16T14:03:02;0.80;;;0.80;;
36585;SDS011;22591;48.314;11.562;2022-10-16T14:05:31;0.63;;;0.60;;
36585;SDS011;22591;48.314;11.562;2022-10-16T14:08:00;0.80;;;0.80;;
36585;SDS011;22591;48.314;11.562;2022-10-16T14:10:29;2.15;;;0.85;;
36585;SDS011;22591;48.314;11.562;2022-10-16T14:13:05;1.67;;;0.70;;
36585;SDS011;22591;48.314;11.562;2022-10-16T14:15:35;2.38;;;0.63;;
36585;SDS011;22591;48.314;11.562;2022-10-16T14:18:02;1.83;;;0.77;;
36585;SDS011;22591;48.314;11.562;2022-10-16T14:20:32;1.98;;;0.70;;
36585;SDS011;22591;48.314;11.562;2022-10-16T14:26:40;1.00;;;0.90;;
36585;SDS011;22591;48.314;11.562;2022-10-16T14:29:13;2.33;;;0.80;;
36585;SDS011;22591;48.314;11.562;2022-10-16T14:31:53;0.60;;;0.60;;
36585;SDS011;22591;48.314;11.562;2022-10-16T14:34:31;2.15;;;0.70;;
36585;SDS011;22591;48.314;11.562;2022-10-16T14:37:21;0.80;;;0.80;;
36585;SDS011;22591;48.314;11.562;2022-10-16T14:39:53;2.40;;;0.70;;
36585;SDS011;22591;48.314;11.562;2022-10-16T14:42:23;1.92;;;0.68;;
36585;SDS011;22591;48.314;11.562;2022-10-16T14:44:51;0.60;;;0.60;;
36585;SDS011;22591;48.314;11.562;2022-10-16T14:47:26;1.10;;;0.90;;
36585;SDS011;22591;48.314;11.562;2022-10-16T14:49:54;2.92;;;0.95;;
36585;SDS011;22591;48.314;11.562;2022-10-16T14:52:24;1.45;;;0.90;;
36585;SDS011;22591;48.314;11.562;2022-10-16T14:54:51;1.65;;;0.82;;
36585;SDS011;22591;48.314;11.562;2022-10-16T14:57:26;2.25;;;0.80;;
36585;SDS011;22591;48.314;11.562;2022-10-16T14:59:58;1.80;;;1.23;;
36585;SDS011;22591;48.314;11.562;2022-10-16T15:02:32;0.80;;;0.80;;
36585;SDS011;22591;48.314;11.562;2022-10-16T15:07:44;2.55;;;0.90;;
36585;SDS011;22591;48.314;11.562;2022-10-16T15:10:13;2.95;;;0.90;;
36585;SDS011;22591;48.314;11.562;2022-10-16T15:12:41;1.35;;;0.85;;
36585;SDS011;22591;48.314;11.562;2022-10-16T15:18:00;2.03;;;1.10;;
36585;SDS011;22591;48.314;11.562;2022-10-16T15:20:32;0.90;;;0.90;;
36585;SDS011;22591;48.314;11.562;2022-10-16T15:23:35;0.70;;;0.70;;
36585;SDS011;22591;48.314;11.562;2022-10-16T15:25:56;0.73;;;0.73;;
36585;SDS011;22591;48.314;11.562;2022-10-16T15:28:22;0.95;;;0.70;;
36585;SDS011;22591;48.314;11.562;2022-10-16T15:30:50;0.90;;;0.63;;
36585;SDS011;22591;48.314;11.562;2022-10-16T15:33:28;1.85;;;1.02;;
36585;SDS011;22591;48.314;11.562;2022-10-16T15:36:01;0.80;;;0.75;;
36585;SDS011;22591;48.314;11.562;2022-10-16T15:38:29;1.75;;;0.80;;
36585;SDS011;22591;48.314;11.562;2022-10-16T15:40:55;1.15;;;0.98;;
36585;SDS011;22591;48.314;11.562;2022-10-16T15:43:22;1.05;;;0.95;;
36585;SDS011;22591;48.314;11.562;2022-10-16T15:46:03;2.65;;;1.10;;
36585;SDS011;22591;48.314;11.562;2022-10-16T15:48:32;0.95;;;0.93;;
36585;SDS011;22591;48.314;11.562;2022-10-16T15:50:59;3.35;;;1.00;;
36585;SDS011;22591;48.314;11.562;2022-10-16T15:53:30;0.70;;;0.70;;
36585;SDS011;22591;48.314;11.562;2022-10-16T15:56:06;0.93;;;0.90;;
36585;SDS011;22591;48.314;11.562;2022-10-16T15:58:34;2.20;;;0.80;;
36585;SDS011;22591;48.314;11.562;2022-10-16T16:01:02;1.85;;;1.10;;
36585;SDS011;22591;48.314;11.562;2022-10-16T16:03:31;1.52;;;1.00;;
36585;SDS011;22591;48.314;11.562;2022-10-16T16:06:09;0.90;;;0.90;;
36585;SDS011;22591;48.314;11.562;2022-10-16T16:08:38;1.80;;;0.90;;
36585;SDS011;22591;48.314;11.562;2022-10-16T16:13:35;1.20;;;0.80;;
36585;SDS011;22591;48.314;11.562;2022-10-16T16:16:07;0.93;;;0.93;;
36585;SDS011;22591;48.314;11.562;2022-10-16T16:18:39;1.25;;;0.93;;
36585;SDS011;22591;48.314;11.562;2022-10-16T16:21:07;1.45;;;1.00;;
36585;SDS011;22591;48.314;11.562;2022-10-16T16:23:35;0.95;;;0.90;;
36585;SDS011;22591;48.314;11.562;2022-10-16T16:26:05;4.47;;;1.25;;
36585;SDS011;22591;48.314;11.562;2022-10-16T16:28:33;1.92;;;0.93;;
36585;SDS011;22591;48.314;11.562;2022-10-16T16:31:01;1.40;;;1.00;;
36585;SDS011;22591;48.314;11.562;2022-10-16T16:33:28;1.67;;;1.05;;
36585;SDS011;22591;48.314;11.562;2022-10-16T16:35:57;2.75;;;1.20;;
36585;SDS011;22591;48.314;11.562;2022-10-16T16:38:25;2.38;;;1.05;;
36585;SDS011;22591;48.314;11.562;2022-10-16T16:40:52;1.55;;;0.98;;
36585;SDS011;22591;48.314;11.562;2022-10-16T16:43:18;1.02;;;0.93;;
36585;SDS011;22591;48.314;11.562;2022-10-16T16:45:45;1.98;;;0.63;;
36585;SDS011;22591;48.314;11.562;2022-10-16T16:48:12;2.15;;;1.13;;
36585;SDS011;22591;48.314;11.562;2022-10-16T16:50:39;3.90;;;0.98;;
36585;SDS011;22591;48.314;11.562;2022-10-16T16:53:05;0.77;;;0.77;;
36585;SDS011;22591;48.314;11.562;2022-10-16T16:55:30;0.90;;;0.82;;
36585;SDS011;22591;48.314;11.562;2022-10-16T16:57:59;1.60;;;1.13;;